createdAt,value
2023-02-06T00:01:48.118Z,20.80
2023-02-06T00:04:15.928Z,20.70
2023-02-06T00:06:43.542Z,19.60
2023-02-06T00:09:10.799Z,20.50
2023-02-06T00:11:38.331Z,22.50
2023-02-06T00:14:05.843Z,24.10
2023-02-06T00:16:35.144Z,22.90
2023-02-06T00:19:03.461Z,21.80
2023-02-06T00:21:31.215Z,23.00
2023-02-06T00:24:01.046Z,24.20
2023-02-06T00:26:29.052Z,25.00
2023-02-06T00:28:56.302Z,25.50
2023-02-06T00:31:23.496Z,23.80
2023-02-06T00:33:50.926Z,24.80
2023-02-06T00:36:18.245Z,22.90
2023-02-06T00:38:45.394Z,20.40
2023-02-06T00:41:12.912Z,22.70
2023-02-06T00:43:41.095Z,21.50
2023-02-06T00:46:08.464Z,23.10
2023-02-06T00:48:35.776Z,24.70
2023-02-06T00:51:03.015Z,24.00
2023-02-06T00:53:30.213Z,23.60
2023-02-06T00:55:57.907Z,23.20
2023-02-06T00:58:25.141Z,22.70
2023-02-06T01:00:53.584Z,23.00
2023-02-06T01:03:21.132Z,22.80
2023-02-06T01:05:48.542Z,21.30
2023-02-06T01:08:15.902Z,22.80
2023-02-06T01:10:45.550Z,22.70
2023-02-06T01:13:13.098Z,22.30
2023-02-06T01:15:40.350Z,20.90
2023-02-06T01:18:07.470Z,20.40
2023-02-06T01:20:34.856Z,19.70
2023-02-06T01:23:02.075Z,21.20
2023-02-06T01:25:29.558Z,21.50
2023-02-06T01:27:56.773Z,22.80
2023-02-06T01:30:23.952Z,22.10
2023-02-06T01:32:51.191Z,22.40
2023-02-06T01:35:18.525Z,22.30
2023-02-06T01:37:45.734Z,21.80
2023-02-06T01:40:16.972Z,21.70
2023-02-06T01:42:44.835Z,20.20
2023-02-06T01:45:36.171Z,18.90
2023-02-06T01:48:11.555Z,17.80
2023-02-06T01:50:42.012Z,17.00
2023-02-06T01:53:09.784Z,16.90
2023-02-06T01:55:40.954Z,18.30
2023-02-06T01:58:11.866Z,19.20
2023-02-06T02:05:13.006Z,19.00
2023-02-06T02:08:59.855Z,18.80
2023-02-06T02:12:47.134Z,17.00
2023-02-06T02:16:26.685Z,19.80
2023-02-06T02:20:07.699Z,19.30
2023-02-06T02:24:22.257Z,19.10
2023-02-06T02:27:29.740Z,16.60
2023-02-06T02:30:47.832Z,17.10
2023-02-06T02:34:30.018Z,16.50
2023-02-06T02:38:02.806Z,18.00
2023-02-06T02:41:56.918Z,15.60
2023-02-06T02:45:26.004Z,18.20
2023-02-06T02:49:18.662Z,17.70
2023-02-06T02:52:48.275Z,17.90
2023-02-06T02:56:35.652Z,17.40
2023-02-06T03:00:24.274Z,17.90
2023-02-06T03:03:52.082Z,17.50
2023-02-06T03:07:46.103Z,16.40
2023-02-06T03:11:05.050Z,18.30
2023-02-06T03:15:04.684Z,18.60
2023-02-06T03:18:45.394Z,17.70
2023-02-06T03:22:12.254Z,19.40
2023-02-06T03:25:59.072Z,17.70
2023-02-06T03:29:45.857Z,18.60
2023-02-06T03:33:32.642Z,18.00
2023-02-06T03:36:59.642Z,16.70
2023-02-06T03:40:46.644Z,16.60
2023-02-06T03:44:13.629Z,15.10
2023-02-06T03:47:55.579Z,15.40
2023-02-06T03:51:23.430Z,15.20
2023-02-06T03:55:10.246Z,14.20
2023-02-06T03:58:43.743Z,13.80
2023-02-06T04:02:21.051Z,13.50
2023-02-06T04:06:07.928Z,14.70
2023-02-06T04:09:43.846Z,13.90
2023-02-06T04:13:30.643Z,15.10
2023-02-06T04:16:59.024Z,14.90
2023-02-06T04:20:46.341Z,16.00
2023-02-06T04:24:33.136Z,16.00
2023-02-06T04:28:09.451Z,14.90
2023-02-06T04:31:40.468Z,15.20
2023-02-06T04:35:27.418Z,16.60
2023-02-06T04:38:54.427Z,17.20
2023-02-06T04:42:22.365Z,16.90
2023-02-06T04:46:09.320Z,14.10
2023-02-06T04:49:36.247Z,15.10
2023-02-06T04:53:23.355Z,13.90
2023-02-06T04:57:10.215Z,12.20
2023-02-06T05:00:57.095Z,12.70
2023-02-06T05:04:47.541Z,12.50
2023-02-06T05:08:18.898Z,13.20
2023-02-06T05:12:05.898Z,14.80
2023-02-06T05:15:52.723Z,15.90
2023-02-06T05:19:22.116Z,15.30
2023-02-06T05:23:03.322Z,14.90
2023-02-06T05:26:50.369Z,15.20
2023-02-06T05:30:37.198Z,16.50
2023-02-06T05:34:24.020Z,15.30
2023-02-06T05:37:04.723Z,15.10
2023-02-06T05:39:37.252Z,15.00
2023-02-06T05:42:49.001Z,15.60
2023-02-06T05:46:16.079Z,13.30
2023-02-06T05:49:25.550Z,13.70
2023-02-06T05:53:06.555Z,12.40
2023-02-06T05:56:34.025Z,12.80
2023-02-06T06:03:26.513Z,13.30
2023-02-06T06:06:58.392Z,12.50
2023-02-06T06:10:07.165Z,13.90
2023-02-06T06:12:58.747Z,13.70
2023-02-06T06:16:30.606Z,13.90
2023-02-06T06:20:17.737Z,15.00
2023-02-06T06:23:52.449Z,15.90
2023-02-06T06:27:39.295Z,14.70
2023-02-06T06:31:26.450Z,13.30
2023-02-06T06:35:14.395Z,14.10
2023-02-06T06:39:01.894Z,14.60
2023-02-06T06:42:31.813Z,13.00
2023-02-06T06:46:19.450Z,12.50
2023-02-06T06:50:07.125Z,13.00
2023-02-06T06:53:54.533Z,11.80
2023-02-06T06:57:42.868Z,11.70
2023-02-06T07:01:30.626Z,11.90
2023-02-06T07:05:18.002Z,12.10
2023-02-06T07:09:06.710Z,11.90
2023-02-06T07:12:54.151Z,12.90
2023-02-06T07:16:41.650Z,13.50
2023-02-06T07:20:29.820Z,12.90
2023-02-06T07:24:16.753Z,13.40
2023-02-06T07:28:03.963Z,12.60
2023-02-06T07:31:51.328Z,11.70
2023-02-06T07:35:42.046Z,11.80
2023-02-06T07:39:29.580Z,14.30
2023-02-06T07:43:19.570Z,13.90
2023-02-06T07:47:08.354Z,13.20
2023-02-06T07:50:44.644Z,13.90
2023-02-06T07:54:31.865Z,13.60
2023-02-06T07:58:22.437Z,12.50
2023-02-06T08:02:10.273Z,11.30
2023-02-06T08:05:57.904Z,11.00
2023-02-06T08:09:44.614Z,11.00
2023-02-06T08:13:32.303Z,11.40
2023-02-06T08:17:19.815Z,10.30
2023-02-06T08:21:07.736Z,10.10
2023-02-06T08:24:57.768Z,12.10
2023-02-06T08:28:45.305Z,11.60
2023-02-06T08:32:37.086Z,11.10
2023-02-06T08:36:27.234Z,10.90
2023-02-06T08:40:14.867Z,12.30
2023-02-06T08:44:02.527Z,7.50
2023-02-06T08:47:50.608Z,7.70
2023-02-06T08:51:44.489Z,6.20
2023-02-06T08:55:32.197Z,7.40
2023-02-06T08:59:22.985Z,8.50
2023-02-06T09:03:10.439Z,7.50
2023-02-06T09:07:01.225Z,6.10
2023-02-06T09:10:48.777Z,7.40
2023-02-06T09:14:37.005Z,7.40
2023-02-06T09:18:24.777Z,7.50
2023-02-06T09:22:11.791Z,6.90
2023-02-06T09:25:59.702Z,6.90
2023-02-06T09:29:46.858Z,6.40
2023-02-06T09:33:34.398Z,5.70
2023-02-06T09:37:24.586Z,6.60
2023-02-06T09:41:21.958Z,7.40
2023-02-06T09:45:20.435Z,7.10
2023-02-06T09:53:11.600Z,7.10
2023-02-06T09:57:12.068Z,7.40
2023-02-06T10:09:25.773Z,6.70
2023-02-06T10:17:03.247Z,5.70
2023-02-06T10:28:34.620Z,8.40
2023-02-06T10:32:28.142Z,9.20
2023-02-06T10:36:32.528Z,7.50
2023-02-06T10:40:34.511Z,6.50
2023-02-06T10:44:25.966Z,9.20
2023-02-06T10:48:22.296Z,9.30
2023-02-06T10:52:14.236Z,9.20
2023-02-06T10:56:04.789Z,8.20
2023-02-06T11:00:07.429Z,11.50
2023-02-06T11:03:54.351Z,8.80
2023-02-06T11:07:32.396Z,9.10
2023-02-06T11:11:19.187Z,7.80
2023-02-06T11:15:06.154Z,7.50
2023-02-06T11:18:36.215Z,7.40
2023-02-06T11:22:52.675Z,8.80
2023-02-06T11:26:37.610Z,9.10
2023-02-06T11:30:25.337Z,9.30
2023-02-06T11:34:33.615Z,10.40
2023-02-06T11:38:30.037Z,8.70
2023-02-06T11:42:18.545Z,9.10
2023-02-06T11:46:06.197Z,8.90
2023-02-06T11:49:36.196Z,7.30
2023-02-06T11:53:09.331Z,8.10
2023-02-06T11:56:54.438Z,7.20
2023-02-06T12:00:42.196Z,8.70
2023-02-06T12:04:17.860Z,10.60
2023-02-06T12:08:17.145Z,9.70
2023-02-06T12:12:04.296Z,8.30
2023-02-06T12:16:05.451Z,7.20
2023-02-06T12:19:52.401Z,7.80
2023-02-06T12:23:41.983Z,7.70
2023-02-06T12:27:28.912Z,7.70
2023-02-06T12:30:52.163Z,8.60
2023-02-06T12:34:50.745Z,8.90
2023-02-06T12:38:28.524Z,10.10
2023-02-06T12:41:54.503Z,11.20
2023-02-06T12:45:40.605Z,12.30
2023-02-06T12:49:31.952Z,12.20
2023-02-06T12:53:17.770Z,9.60
2023-02-06T12:57:17.201Z,9.90
2023-02-06T13:00:45.395Z,9.40
2023-02-06T13:04:29.556Z,8.30
2023-02-06T13:08:12.656Z,11.90
2023-02-06T13:12:05.645Z,10.90
2023-02-06T13:16:01.511Z,10.40
2023-02-06T13:19:51.563Z,10.60
2023-02-06T13:23:20.979Z,9.10
2023-02-06T13:27:26.396Z,10.80
2023-02-06T13:31:16.587Z,10.40
2023-02-06T13:34:56.434Z,12.60
2023-02-06T13:38:53.070Z,11.80
2023-02-06T13:42:40.016Z,9.30
2023-02-06T13:46:27.665Z,9.90
2023-02-06T13:50:19.910Z,9.50
2023-02-06T13:53:30.599Z,10.90
2023-02-06T13:57:06.828Z,14.30
2023-02-06T14:00:53.900Z,11.40
2023-02-06T14:04:30.207Z,11.20
2023-02-06T14:08:35.342Z,11.10
2023-02-06T14:11:23.214Z,10.80
2023-02-06T14:14:53.461Z,10.50
2023-02-06T14:18:46.191Z,11.60
2023-02-06T14:22:58.202Z,10.50
2023-02-06T14:26:28.221Z,14.30
2023-02-06T14:30:05.321Z,12.40
2023-02-06T14:34:04.512Z,11.50
2023-02-06T14:37:46.664Z,12.00
2023-02-06T14:41:12.757Z,13.40
2023-02-06T14:44:49.041Z,13.80
2023-02-06T14:51:42.925Z,13.90
2023-02-06T14:55:10.499Z,14.60
2023-02-06T14:58:38.595Z,15.70
2023-02-06T15:02:11.220Z,16.80
2023-02-06T15:06:04.202Z,13.00
2023-02-06T15:10:02.878Z,14.30
2023-02-06T15:13:20.322Z,16.50
2023-02-06T15:16:53.421Z,19.70
2023-02-06T15:20:39.484Z,15.10
2023-02-06T15:24:18.890Z,13.50
2023-02-06T15:27:25.921Z,15.40
2023-02-06T15:30:53.674Z,14.90
2023-02-06T15:34:23.673Z,15.50
2023-02-06T15:37:59.903Z,15.50
2023-02-06T15:45:02.573Z,15.80
2023-02-06T15:48:29.514Z,14.50
2023-02-06T15:52:09.489Z,14.90
2023-02-06T15:55:39.637Z,13.50
2023-02-06T15:59:08.066Z,13.80
2023-02-06T16:02:40.559Z,13.30
2023-02-06T16:06:12.210Z,14.80
2023-02-06T16:09:59.171Z,12.70
2023-02-06T16:13:26.208Z,13.90
2023-02-06T16:16:25.874Z,13.80
2023-02-06T16:19:02.612Z,13.90
2023-02-06T16:22:05.576Z,13.60
2023-02-06T16:24:35.724Z,12.70
2023-02-06T16:27:17.524Z,13.20
2023-02-06T16:29:49.971Z,12.30
2023-02-06T16:32:22.557Z,14.10
2023-02-06T16:34:53.434Z,15.70
2023-02-06T16:37:27.457Z,16.00
2023-02-06T16:39:57.763Z,14.80
2023-02-06T16:42:32.842Z,16.30
2023-02-06T16:45:06.878Z,17.00
2023-02-06T16:47:34.650Z,35.10
2023-02-06T16:50:03.199Z,30.10
2023-02-06T16:52:33.716Z,29.80
2023-02-06T16:55:02.257Z,21.00
2023-02-06T16:57:42.238Z,18.50
2023-02-06T17:00:25.338Z,18.00
2023-02-06T17:02:54.591Z,21.40
2023-02-06T17:05:27.455Z,26.10
2023-02-06T17:07:56.248Z,35.50
2023-02-06T17:10:26.951Z,40.00
2023-02-06T17:12:57.311Z,34.00
2023-02-06T17:15:27.319Z,36.50
2023-02-06T17:18:18.043Z,30.30
2023-02-06T17:21:09.918Z,30.20
2023-02-06T17:23:48.061Z,22.00
2023-02-06T17:26:29.173Z,20.30
2023-02-06T17:29:41.162Z,18.40
2023-02-06T17:32:37.964Z,17.60
2023-02-06T17:35:28.370Z,17.30
2023-02-06T17:38:07.400Z,17.60
2023-02-06T17:40:37.786Z,17.50
2023-02-06T17:43:06.109Z,17.40
2023-02-06T17:45:38.445Z,16.50
2023-02-06T17:48:07.744Z,17.20
2023-02-06T17:50:46.207Z,27.10
2023-02-06T17:53:14.541Z,18.60
2023-02-06T17:55:43.007Z,18.20
2023-02-06T17:58:10.546Z,16.70
2023-02-06T18:00:51.879Z,15.60
2023-02-06T18:03:26.500Z,14.80
2023-02-06T18:06:03.311Z,18.00
2023-02-06T18:08:55.930Z,16.20
2023-02-06T18:11:27.090Z,14.80
2023-02-06T18:14:40.254Z,14.70
2023-02-06T18:18:29.786Z,13.20
2023-02-06T18:22:17.803Z,13.00
2023-02-06T18:26:07.703Z,13.30
2023-02-06T18:29:56.810Z,14.10
2023-02-06T18:33:49.023Z,16.20
2023-02-06T18:37:43.939Z,19.90
2023-02-06T18:41:34.959Z,21.10
2023-02-06T18:45:26.634Z,15.90
2023-02-06T18:49:22.953Z,11.50
2023-02-06T18:53:00.391Z,12.70
2023-02-06T19:00:16.223Z,12.30
2023-02-06T19:03:49.664Z,10.60
2023-02-06T19:07:36.471Z,12.00
2023-02-06T19:11:06.259Z,9.90
2023-02-06T19:13:49.191Z,10.90
2023-02-06T19:17:05.709Z,17.40
2023-02-06T19:19:57.836Z,13.00
2023-02-06T19:23:18.404Z,10.90
2023-02-06T19:26:32.608Z,9.90
2023-02-06T19:29:35.086Z,10.30
2023-02-06T19:32:20.270Z,9.80
2023-02-06T19:35:03.320Z,10.30
2023-02-06T19:38:03.492Z,18.00
2023-02-06T19:40:42.645Z,11.00
2023-02-06T19:48:40.164Z,10.90
2023-02-06T19:51:14.193Z,10.40
2023-02-06T19:53:47.605Z,12.10
2023-02-06T19:56:40.873Z,12.00
2023-02-06T19:59:18.842Z,12.10
2023-02-06T20:01:49.874Z,12.60
2023-02-06T20:04:19.887Z,10.60
2023-02-06T20:06:51.143Z,11.40
2023-02-06T20:09:21.815Z,10.70
2023-02-06T20:11:51.493Z,11.40
2023-02-06T20:14:25.089Z,12.20
2023-02-06T20:16:53.642Z,15.40
2023-02-06T20:19:25.906Z,16.10
2023-02-06T20:22:00.505Z,18.00
2023-02-06T20:24:34.525Z,21.50
2023-02-06T20:27:08.823Z,19.10
2023-02-06T20:29:46.111Z,13.60
2023-02-06T20:32:20.909Z,18.40
2023-02-06T20:34:51.712Z,14.40
2023-02-06T20:37:20.213Z,19.40
2023-02-06T20:39:48.861Z,24.00
2023-02-06T20:42:17.714Z,19.30
2023-02-06T20:44:47.818Z,19.50
2023-02-06T20:47:18.457Z,20.90
2023-02-06T20:49:53.422Z,15.40
2023-02-06T20:52:25.089Z,10.30
2023-02-06T20:54:54.661Z,12.40
2023-02-06T20:57:24.989Z,15.70
2023-02-06T20:59:53.752Z,18.70
2023-02-06T21:02:25.584Z,26.00
2023-02-06T21:04:54.313Z,53.40
2023-02-06T21:07:24.621Z,58.20
2023-02-06T21:09:53.637Z,66.40
2023-02-06T21:12:21.564Z,65.70
2023-02-06T21:14:50.182Z,51.70
2023-02-06T21:17:21.971Z,56.50
2023-02-06T21:19:53.045Z,35.00
2023-02-06T21:22:20.873Z,42.10
2023-02-06T21:24:48.245Z,32.10
2023-02-06T21:27:15.824Z,18.10
2023-02-06T21:29:44.200Z,22.10
2023-02-06T21:32:14.299Z,16.80
2023-02-06T21:34:43.474Z,15.20
2023-02-06T21:37:11.211Z,13.80
2023-02-06T21:39:41.343Z,13.00
2023-02-06T21:42:10.280Z,12.70
2023-02-06T21:44:38.050Z,12.20
2023-02-06T21:47:05.419Z,14.60
2023-02-06T21:49:33.413Z,17.20
2023-02-06T21:52:00.943Z,11.40
2023-02-06T21:54:29.885Z,12.30
2023-02-06T21:56:57.883Z,12.30
2023-02-06T21:59:25.094Z,56.70
2023-02-06T22:01:52.380Z,19.30
2023-02-06T22:04:19.581Z,10.50
2023-02-06T22:06:48.936Z,15.20
2023-02-06T22:09:17.188Z,11.50
2023-02-06T22:11:44.889Z,11.60
2023-02-06T22:14:14.666Z,10.30
2023-02-06T22:16:42.670Z,10.20
2023-02-06T22:19:11.439Z,11.20
2023-02-06T22:21:39.171Z,9.90
2023-02-06T22:24:08.597Z,11.30
2023-02-06T22:26:39.265Z,11.20
2023-02-06T22:29:08.831Z,12.70
2023-02-06T22:31:37.126Z,10.90
2023-02-06T22:34:04.597Z,11.70
2023-02-06T22:36:33.728Z,12.80
2023-02-06T22:39:08.296Z,11.30
2023-02-06T22:41:39.129Z,14.60
2023-02-06T22:44:06.284Z,17.40
2023-02-06T22:46:36.919Z,14.10
2023-02-06T22:49:06.875Z,24.00
2023-02-06T22:51:34.768Z,28.00
2023-02-06T22:54:02.477Z,19.10
2023-02-06T22:56:35.357Z,16.50
2023-02-06T22:59:07.410Z,21.80
2023-02-06T23:01:40.764Z,24.60
2023-02-06T23:04:14.454Z,19.50
2023-02-06T23:06:42.688Z,18.40
2023-02-06T23:09:14.444Z,16.90
2023-02-06T23:11:42.263Z,17.00
2023-02-06T23:14:11.121Z,15.20
2023-02-06T23:16:38.565Z,14.70
2023-02-06T23:19:07.411Z,14.60
2023-02-06T23:21:38.481Z,13.10
2023-02-06T23:24:07.454Z,15.30
2023-02-06T23:26:35.857Z,16.80
2023-02-06T23:29:06.236Z,16.20
2023-02-06T23:31:33.879Z,20.50
2023-02-06T23:34:01.442Z,21.60
2023-02-06T23:36:29.708Z,21.60
2023-02-06T23:38:57.266Z,24.60
2023-02-06T23:41:27.647Z,29.20
2023-02-06T23:44:00.235Z,38.50
2023-02-06T23:46:29.806Z,41.90
2023-02-06T23:48:57.476Z,41.40
2023-02-06T23:51:25.552Z,39.80
2023-02-06T23:53:52.944Z,40.70
2023-02-06T23:56:26.678Z,57.40
2023-02-06T23:58:55.644Z,66.90
